sensor_id;sensor_type;location;lat;lon;timestamp;pressure;altitude;pressure_sealevel;temperature;humidity
6833;BME280;3454;42.654;23.378;2022-12-29T00:01:15;95377.31;;;6.15;100.00
6833;BME280;3454;42.654;23.378;2022-12-29T00:03:41;95392.91;;;6.07;100.00
6833;BME280;3454;42.654;23.378;2022-12-29T00:06:06;95373.06;;;6.01;100.00
6833;BME280;3454;42.654;23.378;2022-12-29T00:08:32;95385.56;;;6.03;100.00
6833;BME280;3454;42.654;23.378;2022-12-29T00:11:18;95385.81;;;5.98;100.00
6833;BME280;3454;42.654;23.378;2022-12-29T00:13:44;95389.16;;;5.99;100.00
6833;BME280;3454;42.654;23.378;2022-12-29T00:16:36;95393.00;;;5.90;100.00
6833;BME280;3454;42.654;23.378;2022-12-29T00:19:03;95382.41;;;5.68;100.00
6833;BME280;3454;42.654;23.378;2022-12-29T00:21:29;95375.44;;;5.73;100.00
6833;BME280;3454;42.654;23.378;2022-12-29T00:27:07;95393.00;;;5.90;100.00
6833;BME280;3454;42.654;23.378;2022-12-29T00:29:52;95391.06;;;5.95;100.00
6833;BME280;3454;42.654;23.378;2022-12-29T00:32:36;95380.78;;;5.98;100.00
6833;BME280;3454;42.654;23.378;2022-12-29T00:35:43;95388.00;;;6.04;100.00
6833;BME280;3454;42.654;23.378;2022-12-29T00:38:10;95397.22;;;6.05;100.00
6833;BME280;3454;42.654;23.378;2022-12-29T00:40:56;95394.44;;;6.10;100.00
6833;BME280;3454;42.654;23.378;2022-12-29T00:43:40;95418.69;;;6.12;100.00
6833;BME280;3454;42.654;23.378;2022-12-29T00:46:24;95398.28;;;6.01;100.00
6833;BME280;3454;42.654;23.378;2022-12-29T00:48:49;95399.75;;;6.05;100.00
6833;BME280;3454;42.654;23.378;2022-12-29T00:51:33;95414.66;;;6.10;100.00
6833;BME280;3454;42.654;23.378;2022-12-29T00:53:58;95407.72;;;6.13;100.00
6833;BME280;3454;42.654;23.378;2022-12-29T00:56:24;95437.06;;;6.30;100.00
6833;BME280;3454;42.654;23.378;2022-12-29T00:58:49;95427.66;;;6.18;100.00
6833;BME280;3454;42.654;23.378;2022-12-29T01:01:15;95431.53;;;6.23;100.00
6833;BME280;3454;42.654;23.378;2022-12-29T01:03:40;95431.53;;;6.23;100.00
6833;BME280;3454;42.654;23.378;2022-12-29T01:06:08;95406.06;;;6.12;100.00
6833;BME280;3454;42.654;23.378;2022-12-29T01:08:34;95396.41;;;6.05;100.00
6833;BME280;3454;42.654;23.378;2022-12-29T01:11:09;95424.06;;;6.22;100.00
6833;BME280;3454;42.654;23.378;2022-12-29T01:13:36;95424.06;;;6.22;100.00
6833;BME280;3454;42.654;23.378;2022-12-29T01:16:04;95394.91;;;6.16;100.00
6833;BME280;3454;42.654;23.378;2022-12-29T01:18:30;95383.91;;;6.17;100.00
6833;BME280;3454;42.654;23.378;2022-12-29T01:21:00;95377.81;;;6.21;100.00
6833;BME280;3454;42.654;23.378;2022-12-29T01:23:27;95392.84;;;6.23;100.00
6833;BME280;3454;42.654;23.378;2022-12-29T01:25:53;95398.72;;;6.23;100.00
6833;BME280;3454;42.654;23.378;2022-12-29T01:28:18;95402.41;;;6.18;100.00
6833;BME280;3454;42.654;23.378;2022-12-29T01:30:44;95404.22;;;6.16;100.00
6833;BME280;3454;42.654;23.378;2022-12-29T01:33:09;95412.97;;;6.24;100.00
6833;BME280;3454;42.654;23.378;2022-12-29T01:35:34;95409.69;;;6.22;100.00
6833;BME280;3454;42.654;23.378;2022-12-29T01:38:00;95411.88;;;6.28;100.00
6833;BME280;3454;42.654;23.378;2022-12-29T01:40:25;95414.78;;;6.36;100.00
6833;BME280;3454;42.654;23.378;2022-12-29T01:42:51;95378.16;;;6.15;100.00
6833;BME280;3454;42.654;23.378;2022-12-29T01:45:17;95404.16;;;6.31;100.00
6833;BME280;3454;42.654;23.378;2022-12-29T01:47:48;95380.81;;;6.12;100.00
6833;BME280;3454;42.654;23.378;2022-12-29T01:50:28;95375.72;;;6.14;100.00
6833;BME280;3454;42.654;23.378;2022-12-29T01:53:04;95377.03;;;6.05;100.00
6833;BME280;3454;42.654;23.378;2022-12-29T01:55:35;95343.91;;;5.80;100.00
6833;BME280;3454;42.654;23.378;2022-12-29T01:58:04;95335.00;;;5.74;100.00
6833;BME280;3454;42.654;23.378;2022-12-29T02:00:30;95314.84;;;5.59;100.00
6833;BME280;3454;42.654;23.378;2022-12-29T02:02:56;95329.97;;;5.59;100.00
6833;BME280;3454;42.654;23.378;2022-12-29T02:05:32;95311.69;;;5.40;100.00
6833;BME280;3454;42.654;23.378;2022-12-29T02:08:00;95314.16;;;5.41;100.00
6833;BME280;3454;42.654;23.378;2022-12-29T02:10:27;95328.22;;;5.45;100.00
6833;BME280;3454;42.654;23.378;2022-12-29T02:12:56;95322.59;;;5.40;100.00
6833;BME280;3454;42.654;23.378;2022-12-29T02:15:30;95318.72;;;5.19;100.00
6833;BME280;3454;42.654;23.378;2022-12-29T02:18:22;95335.69;;;5.16;100.00
6833;BME280;3454;42.654;23.378;2022-12-29T02:42:05;95345.34;;;5.85;100.00
6833;BME280;3454;42.654;23.378;2022-12-29T02:44:55;95317.91;;;5.79;100.00
6833;BME280;3454;42.654;23.378;2022-12-29T02:50:35;95360.94;;;5.92;100.00
6833;BME280;3454;42.654;23.378;2022-12-29T02:53:08;95330.75;;;5.75;100.00
6833;BME280;3454;42.654;23.378;2022-12-29T02:55:35;95320.91;;;5.70;100.00
6833;BME280;3454;42.654;23.378;2022-12-29T03:01:12;95341.66;;;5.91;100.00
6833;BME280;3454;42.654;23.378;2022-12-29T03:06:30;95339.22;;;5.89;100.00
6833;BME280;3454;42.654;23.378;2022-12-29T03:09:00;95348.34;;;6.06;100.00
6833;BME280;3454;42.654;23.378;2022-12-29T03:11:33;95329.59;;;5.96;100.00
6833;BME280;3454;42.654;23.378;2022-12-29T03:14:32;95323.66;;;5.97;100.00
6833;BME280;3454;42.654;23.378;2022-12-29T03:17:29;95317.78;;;5.97;100.00
6833;BME280;3454;42.654;23.378;2022-12-29T03:20:05;95311.47;;;5.89;100.00
6833;BME280;3454;42.654;23.378;2022-12-29T03:22:36;95309.13;;;5.86;100.00
6833;BME280;3454;42.654;23.378;2022-12-29T03:25:10;95320.41;;;5.95;100.00
6833;BME280;3454;42.654;23.378;2022-12-29T03:27:50;95324.13;;;6.04;100.00
6833;BME280;3454;42.654;23.378;2022-12-29T03:30:17;95311.66;;;6.01;100.00
6833;BME280;3454;42.654;23.378;2022-12-29T03:32:47;95320.69;;;6.05;100.00
6833;BME280;3454;42.654;23.378;2022-12-29T03:35:17;95328.44;;;6.02;100.00
6833;BME280;3454;42.654;23.378;2022-12-29T03:37:55;95330.13;;;5.87;100.00
6833;BME280;3454;42.654;23.378;2022-12-29T03:40:24;95339.88;;;5.93;100.00
6833;BME280;3454;42.654;23.378;2022-12-29T03:42:52;95332.00;;;5.83;100.00
6833;BME280;3454;42.654;23.378;2022-12-29T03:45:18;95359.97;;;5.94;100.00
6833;BME280;3454;42.654;23.378;2022-12-29T03:47:44;95354.63;;;5.85;100.00
6833;BME280;3454;42.654;23.378;2022-12-29T03:50:12;95348.41;;;5.75;100.00
6833;BME280;3454;42.654;23.378;2022-12-29T03:52:38;95354.94;;;5.63;100.00
6833;BME280;3454;42.654;23.378;2022-12-29T03:55:03;95358.53;;;5.59;100.00
6833;BME280;3454;42.654;23.378;2022-12-29T03:57:29;95343.72;;;5.38;100.00
6833;BME280;3454;42.654;23.378;2022-12-29T03:59:55;95311.78;;;5.07;100.00
6833;BME280;3454;42.654;23.378;2022-12-29T04:02:20;95314.59;;;4.85;100.00
6833;BME280;3454;42.654;23.378;2022-12-29T04:04:45;95319.66;;;4.85;100.00
6833;BME280;3454;42.654;23.378;2022-12-29T04:07:11;95333.56;;;4.92;100.00
6833;BME280;3454;42.654;23.378;2022-12-29T04:09:36;95338.19;;;5.00;100.00
6833;BME280;3454;42.654;23.378;2022-12-29T04:12:02;95349.25;;;5.13;100.00
6833;BME280;3454;42.654;23.378;2022-12-29T04:14:27;95332.25;;;5.01;100.00
6833;BME280;3454;42.654;23.378;2022-12-29T04:16:52;95335.34;;;5.06;100.00
6833;BME280;3454;42.654;23.378;2022-12-29T04:19:18;95338.38;;;5.13;100.00
6833;BME280;3454;42.654;23.378;2022-12-29T04:21:43;95339.25;;;5.11;100.00
6833;BME280;3454;42.654;23.378;2022-12-29T04:24:09;95348.03;;;5.20;100.00
6833;BME280;3454;42.654;23.378;2022-12-29T04:26:34;95341.13;;;5.08;100.00
6833;BME280;3454;42.654;23.378;2022-12-29T04:28:59;95340.91;;;5.13;100.00
6833;BME280;3454;42.654;23.378;2022-12-29T04:31:25;95347.22;;;5.20;100.00
6833;BME280;3454;42.654;23.378;2022-12-29T04:33:50;95349.75;;;5.20;100.00
6833;BME280;3454;42.654;23.378;2022-12-29T04:36:15;95349.09;;;5.16;100.00
6833;BME280;3454;42.654;23.378;2022-12-29T04:38:41;95333.00;;;5.19;100.00
6833;BME280;3454;42.654;23.378;2022-12-29T04:41:07;95350.47;;;5.22;100.00
6833;BME280;3454;42.654;23.378;2022-12-29T04:43:33;95356.91;;;5.27;100.00
6833;BME280;3454;42.654;23.378;2022-12-29T04:45:58;95358.75;;;5.24;100.00
6833;BME280;3454;42.654;23.378;2022-12-29T04:48:23;95364.53;;;5.26;100.00
6833;BME280;3454;42.654;23.378;2022-12-29T04:50:49;95376.81;;;5.32;100.00
6833;BME280;3454;42.654;23.378;2022-12-29T04:53:16;95384.88;;;5.38;100.00
6833;BME280;3454;42.654;23.378;2022-12-29T04:55:42;95386.03;;;5.33;100.00
6833;BME280;3454;42.654;23.378;2022-12-29T04:58:07;95375.03;;;5.34;100.00
6833;BME280;3454;42.654;23.378;2022-12-29T05:00:33;95379.00;;;5.38;100.00
6833;BME280;3454;42.654;23.378;2022-12-29T05:02:58;95353.72;;;5.24;100.00
6833;BME280;3454;42.654;23.378;2022-12-29T05:05:24;95381.13;;;5.30;100.00
6833;BME280;3454;42.654;23.378;2022-12-29T05:07:50;95384.25;;;5.35;100.00
6833;BME280;3454;42.654;23.378;2022-12-29T05:10:15;95391.56;;;5.39;100.00
6833;BME280;3454;42.654;23.378;2022-12-29T05:12:41;95386.44;;;5.41;100.00
6833;BME280;3454;42.654;23.378;2022-12-29T05:15:09;95370.56;;;5.39;100.00
6833;BME280;3454;42.654;23.378;2022-12-29T05:20:38;95369.66;;;5.40;100.00
6833;BME280;3454;42.654;23.378;2022-12-29T05:23:03;95372.84;;;5.43;100.00
6833;BME280;3454;42.654;23.378;2022-12-29T05:25:29;95390.09;;;5.51;100.00
6833;BME280;3454;42.654;23.378;2022-12-29T05:27:54;95367.16;;;5.40;100.00
6833;BME280;3454;42.654;23.378;2022-12-29T05:30:19;95349.19;;;5.30;100.00
6833;BME280;3454;42.654;23.378;2022-12-29T05:32:45;95349.75;;;5.20;100.00
6833;BME280;3454;42.654;23.378;2022-12-29T05:35:10;95353.00;;;5.22;100.00
6833;BME280;3454;42.654;23.378;2022-12-29T05:37:36;95361.47;;;5.36;100.00
6833;BME280;3454;42.654;23.378;2022-12-29T05:40:01;95369.19;;;5.49;100.00
6833;BME280;3454;42.654;23.378;2022-12-29T05:42:26;95376.44;;;5.55;100.00
6833;BME280;3454;42.654;23.378;2022-12-29T05:44:52;95378.78;;;5.58;100.00
6833;BME280;3454;42.654;23.378;2022-12-29T05:47:19;95359.03;;;5.35;100.00
6833;BME280;3454;42.654;23.378;2022-12-29T05:49:44;95317.22;;;4.84;100.00
6833;BME280;3454;42.654;23.378;2022-12-29T05:52:41;95360.53;;;4.90;100.00
6833;BME280;3454;42.654;23.378;2022-12-29T05:55:07;95360.50;;;5.23;100.00
6833;BME280;3454;42.654;23.378;2022-12-29T05:57:33;95374.16;;;5.35;100.00
6833;BME280;3454;42.654;23.378;2022-12-29T05:59:58;95371.13;;;5.28;100.00
6833;BME280;3454;42.654;23.378;2022-12-29T06:02:23;95376.25;;;5.27;100.00
6833;BME280;3454;42.654;23.378;2022-12-29T06:04:49;95370.22;;;5.13;100.00
6833;BME280;3454;42.654;23.378;2022-12-29T06:07:14;95385.03;;;5.20;100.00
6833;BME280;3454;42.654;23.378;2022-12-29T06:09:40;95401.47;;;5.58;100.00
6833;BME280;3454;42.654;23.378;2022-12-29T06:12:05;95416.94;;;5.67;100.00
6833;BME280;3454;42.654;23.378;2022-12-29T06:14:31;95405.53;;;5.60;100.00
6833;BME280;3454;42.654;23.378;2022-12-29T06:16:56;95396.09;;;5.79;100.00
6833;BME280;3454;42.654;23.378;2022-12-29T06:19:22;95396.75;;;5.67;100.00
6833;BME280;3454;42.654;23.378;2022-12-29T06:21:47;95368.94;;;5.38;100.00
6833;BME280;3454;42.654;23.378;2022-12-29T06:24:13;95381.94;;;5.46;100.00
6833;BME280;3454;42.654;23.378;2022-12-29T06:26:38;95380.88;;;5.19;100.00
6833;BME280;3454;42.654;23.378;2022-12-29T06:29:06;95375.25;;;5.13;100.00
6833;BME280;3454;42.654;23.378;2022-12-29T06:31:33;95368.59;;;5.13;100.00
6833;BME280;3454;42.654;23.378;2022-12-29T06:33:58;95374.47;;;5.29;100.00
6833;BME280;3454;42.654;23.378;2022-12-29T06:36:24;95388.88;;;5.27;100.00
6833;BME280;3454;42.654;23.378;2022-12-29T06:38:49;95386.56;;;5.22;100.00
6833;BME280;3454;42.654;23.378;2022-12-29T06:41:17;95389.59;;;5.29;100.00
6833;BME280;3454;42.654;23.378;2022-12-29T06:43:43;95392.03;;;5.46;100.00
6833;BME280;3454;42.654;23.378;2022-12-29T06:46:08;95403.28;;;5.71;100.00
6833;BME280;3454;42.654;23.378;2022-12-29T06:48:34;95416.09;;;5.98;100.00
6833;BME280;3454;42.654;23.378;2022-12-29T06:50:59;95399.19;;;5.69;100.00
6833;BME280;3454;42.654;23.378;2022-12-29T06:53:24;95390.25;;;5.63;100.00
6833;BME280;3454;42.654;23.378;2022-12-29T06:55:50;95422.50;;;5.89;100.00
6833;BME280;3454;42.654;23.378;2022-12-29T06:58:15;95426.38;;;5.95;100.00
6833;BME280;3454;42.654;23.378;2022-12-29T07:00:41;95435.06;;;6.05;100.00
6833;BME280;3454;42.654;23.378;2022-12-29T07:03:06;95430.19;;;6.02;100.00
6833;BME280;3454;42.654;23.378;2022-12-29T07:05:32;95441.63;;;6.23;100.00
6833;BME280;3454;42.654;23.378;2022-12-29T07:07:58;95433.59;;;6.17;100.00
6833;BME280;3454;42.654;23.378;2022-12-29T07:10:24;95424.25;;;6.03;100.00
6833;BME280;3454;42.654;23.378;2022-12-29T07:12:49;95430.41;;;6.13;100.00
6833;BME280;3454;42.654;23.378;2022-12-29T07:15:15;95440.72;;;6.40;100.00
6833;BME280;3454;42.654;23.378;2022-12-29T07:17:40;95453.16;;;6.43;100.00
6833;BME280;3454;42.654;23.378;2022-12-29T07:20:06;95437.81;;;6.16;100.00
6833;BME280;3454;42.654;23.378;2022-12-29T07:22:32;95435.47;;;6.13;100.00
6833;BME280;3454;42.654;23.378;2022-12-29T07:24:58;95424.78;;;6.24;100.00
6833;BME280;3454;42.654;23.378;2022-12-29T07:27:23;95433.13;;;6.40;100.00
6833;BME280;3454;42.654;23.378;2022-12-29T07:29:48;95459.09;;;6.71;100.00
6833;BME280;3454;42.654;23.378;2022-12-29T07:32:14;95465.13;;;6.69;100.00
6833;BME280;3454;42.654;23.378;2022-12-29T07:34:39;95493.66;;;7.01;100.00
6833;BME280;3454;42.654;23.378;2022-12-29T07:37:05;95484.41;;;7.00;100.00
6833;BME280;3454;42.654;23.378;2022-12-29T07:39:31;95501.63;;;7.23;100.00
6833;BME280;3454;42.654;23.378;2022-12-29T07:41:56;95520.41;;;7.47;100.00
6833;BME280;3454;42.654;23.378;2022-12-29T07:44:21;95542.63;;;7.70;100.00
6833;BME280;3454;42.654;23.378;2022-12-29T07:46:47;95527.56;;;7.54;100.00
6833;BME280;3454;42.654;23.378;2022-12-29T07:49:12;95542.28;;;7.76;100.00
6833;BME280;3454;42.654;23.378;2022-12-29T07:51:38;95541.28;;;7.79;100.00
6833;BME280;3454;42.654;23.378;2022-12-29T07:54:03;95560.78;;;8.05;100.00
6833;BME280;3454;42.654;23.378;2022-12-29T07:56:29;95590.88;;;8.23;100.00
6833;BME280;3454;42.654;23.378;2022-12-29T07:58:54;95607.88;;;8.50;100.00
6833;BME280;3454;42.654;23.378;2022-12-29T08:01:19;95601.75;;;8.39;100.00
6833;BME280;3454;42.654;23.378;2022-12-29T08:03:45;95575.69;;;8.37;100.00
6833;BME280;3454;42.654;23.378;2022-12-29T08:06:11;95585.31;;;8.59;100.00
6833;BME280;3454;42.654;23.378;2022-12-29T08:08:36;95583.25;;;8.78;100.00
6833;BME280;3454;42.654;23.378;2022-12-29T08:11:02;95641.22;;;8.97;100.00
6833;BME280;3454;42.654;23.378;2022-12-29T08:13:27;95658.56;;;9.17;100.00
6833;BME280;3454;42.654;23.378;2022-12-29T08:15:52;95680.13;;;9.37;100.00
6833;BME280;3454;42.654;23.378;2022-12-29T08:18:18;95658.88;;;9.25;100.00
6833;BME280;3454;42.654;23.378;2022-12-29T08:20:44;95647.63;;;9.29;100.00
6833;BME280;3454;42.654;23.378;2022-12-29T08:23:09;95675.28;;;9.46;100.00
6833;BME280;3454;42.654;23.378;2022-12-29T08:25:35;95665.53;;;9.53;100.00
6833;BME280;3454;42.654;23.378;2022-12-29T08:28:00;95662.47;;;9.48;100.00
6833;BME280;3454;42.654;23.378;2022-12-29T08:30:26;95665.28;;;9.82;100.00
6833;BME280;3454;42.654;23.378;2022-12-29T08:32:51;95676.28;;;9.95;100.00
6833;BME280;3454;42.654;23.378;2022-12-29T08:35:17;95690.81;;;10.19;100.00
6833;BME280;3454;42.654;23.378;2022-12-29T08:37:42;95719.06;;;10.52;100.00
6833;BME280;3454;42.654;23.378;2022-12-29T08:40:08;95734.09;;;10.80;100.00
6833;BME280;3454;42.654;23.378;2022-12-29T08:42:34;95715.88;;;10.86;100.00
6833;BME280;3454;42.654;23.378;2022-12-29T08:44:59;95763.47;;;11.33;100.00
6833;BME280;3454;42.654;23.378;2022-12-29T08:47:26;95743.56;;;11.14;100.00
6833;BME280;3454;42.654;23.378;2022-12-29T08:49:51;95758.84;;;11.14;100.00
6833;BME280;3454;42.654;23.378;2022-12-29T08:52:17;95767.94;;;11.29;100.00
6833;BME280;3454;42.654;23.378;2022-12-29T08:54:43;95768.94;;;11.39;100.00
6833;BME280;3454;42.654;23.378;2022-12-29T08:57:08;95772.41;;;11.62;100.00
6833;BME280;3454;42.654;23.378;2022-12-29T08:59:34;95804.19;;;11.93;98.23
6833;BME280;3454;42.654;23.378;2022-12-29T09:01:59;95805.66;;;12.08;97.77
6833;BME280;3454;42.654;23.378;2022-12-29T09:04:25;95806.72;;;12.16;97.69
6833;BME280;3454;42.654;23.378;2022-12-29T09:06:52;95809.19;;;12.29;96.71
6833;BME280;3454;42.654;23.378;2022-12-29T09:09:18;95806.63;;;12.29;88.06
6833;BME280;3454;42.654;23.378;2022-12-29T09:11:44;95842.69;;;12.70;82.87
6833;BME280;3454;42.654;23.378;2022-12-29T09:14:10;95838.97;;;12.74;81.03
6833;BME280;3454;42.654;23.378;2022-12-29T09:16:35;95767.44;;;12.08;82.09
6833;BME280;3454;42.654;23.378;2022-12-29T09:19:02;95759.22;;;12.15;81.12
6833;BME280;3454;42.654;23.378;2022-12-29T09:21:27;95761.03;;;12.48;80.21
6833;BME280;3454;42.654;23.378;2022-12-29T09:23:53;95805.38;;;12.34;77.10
6833;BME280;3454;42.654;23.378;2022-12-29T09:26:19;95803.72;;;12.68;76.88
6833;BME280;3454;42.654;23.378;2022-12-29T09:28:44;95839.22;;;12.93;74.65
6833;BME280;3454;42.654;23.378;2022-12-29T09:31:10;95819.75;;;12.92;75.03
6833;BME280;3454;42.654;23.378;2022-12-29T09:33:35;95804.66;;;13.00;75.10
6833;BME280;3454;42.654;23.378;2022-12-29T09:36:02;95753.22;;;12.27;77.82
6833;BME280;3454;42.654;23.378;2022-12-29T09:38:28;95815.44;;;12.93;74.30
6833;BME280;3454;42.654;23.378;2022-12-29T09:43:56;95852.03;;;13.48;71.46
6833;BME280;3454;42.654;23.378;2022-12-29T09:46:29;95828.19;;;13.59;72.46
6833;BME280;3454;42.654;23.378;2022-12-29T09:49:13;95840.53;;;13.86;70.89
6833;BME280;3454;42.654;23.378;2022-12-29T09:51:43;95867.69;;;13.98;68.47
6833;BME280;3454;42.654;23.378;2022-12-29T09:56:55;95861.81;;;14.29;67.38
6833;BME280;3454;42.654;23.378;2022-12-29T09:59:24;95917.88;;;14.64;64.54
6833;BME280;3454;42.654;23.378;2022-12-29T10:02:00;95923.97;;;14.93;63.49
6833;BME280;3454;42.654;23.378;2022-12-29T10:04:30;95894.53;;;14.78;64.22
6833;BME280;3454;42.654;23.378;2022-12-29T10:09:56;95811.81;;;14.36;66.95
6833;BME280;3454;42.654;23.378;2022-12-29T10:12:52;95704.84;;;13.03;71.26
6833;BME280;3454;42.654;23.378;2022-12-29T10:15:40;95781.53;;;13.78;67.88
6833;BME280;3454;42.654;23.378;2022-12-29T10:23:26;95743.56;;;13.41;68.39
6833;BME280;3454;42.654;23.378;2022-12-29T10:25:57;95783.59;;;13.95;67.44
6833;BME280;3454;42.654;23.378;2022-12-29T10:28:29;95768.38;;;14.14;67.45
6833;BME280;3454;42.654;23.378;2022-12-29T10:30:57;95763.94;;;14.48;66.52
6833;BME280;3454;42.654;23.378;2022-12-29T10:33:35;95820.25;;;14.98;65.37
6833;BME280;3454;42.654;23.378;2022-12-29T10:36:20;95870.53;;;15.30;62.93
6833;BME280;3454;42.654;23.378;2022-12-29T10:41:18;95795.19;;;14.30;65.19
6833;BME280;3454;42.654;23.378;2022-12-29T10:43:47;95797.19;;;14.68;64.82
6833;BME280;3454;42.654;23.378;2022-12-29T10:46:17;95826.25;;;14.88;63.79
6833;BME280;3454;42.654;23.378;2022-12-29T10:48:44;95806.09;;;14.94;64.43
6833;BME280;3454;42.654;23.378;2022-12-29T10:51:30;95773.75;;;14.11;64.72
6833;BME280;3454;42.654;23.378;2022-12-29T10:54:15;95664.63;;;13.07;70.10
6833;BME280;3454;42.654;23.378;2022-12-29T10:56:54;95700.03;;;13.75;68.70
6833;BME280;3454;42.654;23.378;2022-12-29T10:59:29;95665.06;;;13.01;69.74
6833;BME280;3454;42.654;23.378;2022-12-29T11:04:35;95695.78;;;13.85;68.35
6833;BME280;3454;42.654;23.378;2022-12-29T11:07:04;95717.16;;;13.84;67.19
6833;BME280;3454;42.654;23.378;2022-12-29T11:09:34;95683.34;;;13.91;67.67
6833;BME280;3454;42.654;23.378;2022-12-29T11:12:18;95718.19;;;14.34;66.38
6833;BME280;3454;42.654;23.378;2022-12-29T11:14:44;95709.09;;;14.20;66.52
6833;BME280;3454;42.654;23.378;2022-12-29T11:17:15;95729.34;;;14.53;66.01
6833;BME280;3454;42.654;23.378;2022-12-29T11:19:41;95745.81;;;14.90;65.13
6833;BME280;3454;42.654;23.378;2022-12-29T11:22:26;95785.94;;;15.10;63.08
6833;BME280;3454;42.654;23.378;2022-12-29T11:24:54;95780.34;;;14.96;63.23
6833;BME280;3454;42.654;23.378;2022-12-29T11:27:24;95763.84;;;14.89;63.69
6833;BME280;3454;42.654;23.378;2022-12-29T11:29:52;95752.69;;;14.90;63.53
6833;BME280;3454;42.654;23.378;2022-12-29T11:32:26;95763.06;;;14.88;63.47
6833;BME280;3454;42.654;23.378;2022-12-29T11:34:52;95768.56;;;15.24;62.91
6833;BME280;3454;42.654;23.378;2022-12-29T11:37:26;95783.88;;;15.44;62.27
6833;BME280;3454;42.654;23.378;2022-12-29T11:39:57;95787.44;;;15.62;61.90
6833;BME280;3454;42.654;23.378;2022-12-29T11:42:38;95836.44;;;15.78;60.04
6833;BME280;3454;42.654;23.378;2022-12-29T11:45:09;95797.06;;;15.89;60.85
6833;BME280;3454;42.654;23.378;2022-12-29T11:47:47;95819.88;;;16.02;60.02
6833;BME280;3454;42.654;23.378;2022-12-29T11:50:22;95797.84;;;16.18;60.59
6833;BME280;3454;42.654;23.378;2022-12-29T11:55:40;95759.78;;;15.66;60.35
6833;BME280;3454;42.654;23.378;2022-12-29T11:58:06;95741.28;;;15.72;60.97
6833;BME280;3454;42.654;23.378;2022-12-29T12:00:34;95733.06;;;15.78;61.02
6833;BME280;3454;42.654;23.378;2022-12-29T12:05:39;95711.47;;;15.42;62.10
6833;BME280;3454;42.654;23.378;2022-12-29T12:08:16;95704.13;;;15.38;61.97
6833;BME280;3454;42.654;23.378;2022-12-29T12:10:55;95716.19;;;15.47;61.39
6833;BME280;3454;42.654;23.378;2022-12-29T12:13:37;95724.56;;;15.68;60.97
6833;BME280;3454;42.654;23.378;2022-12-29T12:16:13;95756.16;;;15.97;59.65
6833;BME280;3454;42.654;23.378;2022-12-29T12:18:41;95738.88;;;15.99;60.21
6833;BME280;3454;42.654;23.378;2022-12-29T12:21:16;95755.06;;;16.09;59.25
6833;BME280;3454;42.654;23.378;2022-12-29T12:23:53;95728.09;;;15.95;60.00
6833;BME280;3454;42.654;23.378;2022-12-29T12:26:32;95731.16;;;16.09;59.81
6833;BME280;3454;42.654;23.378;2022-12-29T12:29:12;95738.28;;;16.24;59.35
6833;BME280;3454;42.654;23.378;2022-12-29T12:32:20;95719.28;;;16.17;60.15
6833;BME280;3454;42.654;23.378;2022-12-29T12:34:48;95708.75;;;16.11;60.30
6833;BME280;3454;42.654;23.378;2022-12-29T12:43:04;95718.56;;;16.25;59.68
6833;BME280;3454;42.654;23.378;2022-12-29T12:46:32;95717.00;;;15.76;59.59
6833;BME280;3454;42.654;23.378;2022-12-29T12:49:01;95663.66;;;15.12;61.57
6833;BME280;3454;42.654;23.378;2022-12-29T13:00:01;95688.94;;;15.65;60.28
6833;BME280;3454;42.654;23.378;2022-12-29T13:10:50;95626.97;;;15.22;63.12
6833;BME280;3454;42.654;23.378;2022-12-29T13:30:23;95538.19;;;14.35;67.10
6833;BME280;3454;42.654;23.378;2022-12-29T13:33:25;95554.09;;;14.38;66.49
6833;BME280;3454;42.654;23.378;2022-12-29T13:36:27;95544.50;;;14.30;66.96
6833;BME280;3454;42.654;23.378;2022-12-29T13:39:02;95516.50;;;13.99;67.99
6833;BME280;3454;42.654;23.378;2022-12-29T13:43:58;95487.22;;;13.73;70.39
6833;BME280;3454;42.654;23.378;2022-12-29T13:46:30;95472.91;;;13.61;70.40
6833;BME280;3454;42.654;23.378;2022-12-29T13:49:02;95473.66;;;13.52;70.68
6833;BME280;3454;42.654;23.378;2022-12-29T13:51:32;95455.88;;;13.40;71.77
6833;BME280;3454;42.654;23.378;2022-12-29T13:57:03;95454.84;;;13.22;71.57
6833;BME280;3454;42.654;23.378;2022-12-29T14:05:04;95359.34;;;12.42;78.43
6833;BME280;3454;42.654;23.378;2022-12-29T14:07:36;95374.41;;;12.45;77.79
6833;BME280;3454;42.654;23.378;2022-12-29T14:10:03;95364.53;;;12.52;78.09
6833;BME280;3454;42.654;23.378;2022-12-29T14:12:40;95345.16;;;12.29;79.98
6833;BME280;3454;42.654;23.378;2022-12-29T14:17:36;95348.16;;;12.34;79.83
6833;BME280;3454;42.654;23.378;2022-12-29T14:20:02;95348.53;;;12.29;80.19
6833;BME280;3454;42.654;23.378;2022-12-29T14:22:29;95342.19;;;12.24;80.49
6833;BME280;3454;42.654;23.378;2022-12-29T14:24:54;95349.22;;;12.31;80.44
6833;BME280;3454;42.654;23.378;2022-12-29T14:29:47;95325.56;;;11.77;82.77
6833;BME280;3454;42.654;23.378;2022-12-29T14:34:52;95318.28;;;11.72;83.68
6833;BME280;3454;42.654;23.378;2022-12-29T14:37:29;95315.50;;;11.64;83.12
6833;BME280;3454;42.654;23.378;2022-12-29T14:40:16;95318.75;;;11.55;84.34
6833;BME280;3454;42.654;23.378;2022-12-29T14:42:46;95325.13;;;11.61;83.87
6833;BME280;3454;42.654;23.378;2022-12-29T14:47:39;95316.91;;;11.46;84.40
6833;BME280;3454;42.654;23.378;2022-12-29T14:55:42;95309.75;;;11.29;85.58
6833;BME280;3454;42.654;23.378;2022-12-29T14:58:19;95286.09;;;11.07;87.72
6833;BME280;3454;42.654;23.378;2022-12-29T15:00:46;95302.63;;;11.12;87.03
6833;BME280;3454;42.654;23.378;2022-12-29T15:03:30;95277.41;;;10.87;88.89
6833;BME280;3454;42.654;23.378;2022-12-29T15:05:59;95257.06;;;10.65;90.71
6833;BME280;3454;42.654;23.378;2022-12-29T15:08:37;95259.06;;;10.61;90.83
6833;BME280;3454;42.654;23.378;2022-12-29T15:11:09;95246.91;;;10.65;91.28
6833;BME280;3454;42.654;23.378;2022-12-29T15:13:39;95243.81;;;10.61;92.33
6833;BME280;3454;42.654;23.378;2022-12-29T15:18:49;95258.84;;;10.64;91.74
6833;BME280;3454;42.654;23.378;2022-12-29T15:21:15;95276.38;;;10.67;89.98
6833;BME280;3454;42.654;23.378;2022-12-29T15:23:43;95259.63;;;10.54;89.88
6833;BME280;3454;42.654;23.378;2022-12-29T15:26:10;95268.97;;;10.53;89.94
6833;BME280;3454;42.654;23.378;2022-12-29T15:28:46;95249.22;;;10.35;91.03
6833;BME280;3454;42.654;23.378;2022-12-29T15:31:15;95248.63;;;10.31;91.46
6833;BME280;3454;42.654;23.378;2022-12-29T15:33:45;95241.78;;;10.21;91.91